Time;durP1;ratioP1;P1;durP2;ratioP2;P2;SDS_P1;SDS_P2;PMS_P1;PMS_P2;Temp;Humidity;BMP_temperature;BMP_pressure;BME280_temperature;BME280_humidity;BME280_pressure;Samples;Min_cycle;Max_cycle;Signal;HPM_P1;HPM_P2
2021/12/14 00:00:54;;;;;;;;;;;8.20;99.90;;;;;;5035732;28;19920;-82
2021/12/14 00:03:21;;;;;;;;;;;8.20;99.90;;;;;;5035274;28;19913;-83
2021/12/14 00:05:46;;;;;;;;;;;8.20;99.90;;;;;;5035074;28;20027;-83
2021/12/14 00:08:14;;;;;;;;;;;8.20;99.90;;;;;;5033818;28;20008;-84
2021/12/14 00:10:50;;;;;;;;;;;8.20;99.90;;;;;;5033797;28;19917;-83
2021/12/14 00:13:28;;;;;;;;;;;8.20;99.90;;;;;;5033390;28;19917;-84
2021/12/14 00:15:54;;;;;;;;;;;8.20;99.90;;;;;;5039879;28;19921;-83
2021/12/14 00:18:20;;;;;;;;;;;8.20;99.90;;;;;;5037337;28;19922;-83
2021/12/14 00:20:54;;;;;;;;;;;8.20;99.90;;;;;;5036354;28;20243;-83
2021/12/14 00:26:06;;;;;;;;;;;8.10;99.90;;;;;;5037873;28;19920;-85
2021/12/14 00:28:32;;;;;;;;;;;8.10;99.90;;;;;;5035218;28;19921;-83
2021/12/14 00:31:00;;;;;;;;;;;8.10;99.90;;;;;;5026936;28;19917;-83
2021/12/14 00:33:30;;;;;;;;;;;8.10;99.90;;;;;;5035637;28;19916;-83
2021/12/14 00:35:56;;;;;;;;;;;8.10;99.90;;;;;;5051655;28;20319;-85
2021/12/14 00:38:22;;;;;;;;;;;8.10;99.90;;;;;;5052905;28;19914;-83
2021/12/14 00:40:50;;;;;;;;;;;8.10;99.90;;;;;;5047635;28;19928;-82
2021/12/14 00:43:16;;;;;;;;;;;8.10;99.90;;;;;;5029695;28;19936;-83
2021/12/14 00:45:43;;;;;;;;;;;8.10;99.90;;;;;;5043479;28;19932;-82
2021/12/14 00:48:09;;;;;;;;;;;8.10;99.90;;;;;;5027855;28;19917;-83
2021/12/14 00:50:35;;;;;;;;;;;8.10;99.90;;;;;;5026358;28;19940;-83
2021/12/14 00:53:01;;;;;;;;;;;8.10;99.90;;;;;;5025914;28;19960;-83
2021/12/14 00:55:31;;;;;;;;;;;8.00;99.90;;;;;;5026826;28;19965;-86
2021/12/14 00:57:57;;;;;;;;;;;8.10;99.90;;;;;;5029316;28;19924;-82
2021/12/14 01:00:28;;;;;;;;;;;8.10;99.90;;;;;;5028051;28;19917;-82
2021/12/14 01:02:53;;;;;;;;;;;8.10;99.90;;;;;;5036037;28;19912;-83
2021/12/14 01:05:22;;;;;;;;;;;8.10;99.90;;;;;;5030422;28;19972;-83
2021/12/14 01:07:47;;;;;;;;;;;8.10;99.90;;;;;;5022594;28;19963;-84
2021/12/14 01:10:19;;;;;;;;;;;8.00;99.90;;;;;;5031226;28;19917;-84
2021/12/14 01:12:50;;;;;;;;;;;8.00;99.90;;;;;;5024894;28;19921;-84
2021/12/14 01:15:30;;;;;;;;;;;8.00;99.90;;;;;;5024858;28;19917;-83
2021/12/14 01:18:48;;;;;;;;;;;8.00;99.90;;;;;;5050689;28;19952;-84
2021/12/14 01:20:49;;;;;;;;;;;8.00;99.90;;;;;;5015355;28;19921;-83
2021/12/14 01:23:18;;;;;;;;;;;8.00;99.90;;;;;;5035141;28;19913;-82
2021/12/14 01:25:46;;;;;;;;;;;8.00;99.90;;;;;;5031570;28;19917;-82
2021/12/14 01:28:15;;;;;;;;;;;8.00;99.90;;;;;;5028931;28;19975;-85
2021/12/14 01:30:53;;;;;;;;;;;8.00;99.90;;;;;;5031877;28;20275;-84
2021/12/14 01:33:21;;;;;;;;;;;8.00;99.90;;;;;;5033569;28;20008;-83
2021/12/14 01:35:49;;;;;;;;;;;8.00;99.90;;;;;;5042958;28;19917;-83
2021/12/14 01:40:59;;;;;;;;;;;8.00;99.90;;;;;;5031153;28;20016;-83
2021/12/14 01:43:33;;;;;;;;;;;8.00;99.90;;;;;;5024889;28;19913;-83
2021/12/14 01:46:03;;;;;;;;;;;8.00;99.90;;;;;;5026232;28;20020;-83
2021/12/14 01:48:29;;;;;;;;;;;8.00;99.90;;;;;;5043967;28;20325;-83
2021/12/14 01:50:57;;;;;;;;;;;8.00;99.90;;;;;;5026236;28;19913;-83
2021/12/14 01:53:23;;;;;;;;;;;8.00;99.90;;;;;;5033467;28;19921;-83
2021/12/14 01:55:53;;;;;;;;;;;8.00;99.90;;;;;;5020706;28;19914;-83
2021/12/14 01:58:20;;;;;;;;;;;8.00;99.90;;;;;;5010753;28;19963;-83
2021/12/14 02:00:52;;;;;;;;;;;8.00;99.90;;;;;;5044302;28;20008;-82
2021/12/14 02:03:19;;;;;;;;;;;7.90;99.90;;;;;;5027781;28;19918;-83
2021/12/14 02:05:49;;;;;;;;;;;8.00;99.90;;;;;;5025754;28;20007;-83
2021/12/14 02:08:15;;;;;;;;;;;8.00;99.90;;;;;;5040084;28;20003;-82
2021/12/14 02:10:40;;;;;;;;;;;7.90;99.90;;;;;;5024970;28;20007;-84
2021/12/14 02:13:06;;;;;;;;;;;7.90;99.90;;;;;;5028356;28;20024;-83
2021/12/14 02:15:37;;;;;;;;;;;7.90;99.90;;;;;;5027052;28;19991;-82
2021/12/14 02:18:06;;;;;;;;;;;7.90;99.90;;;;;;5040791;28;19960;-82
2021/12/14 02:20:38;;;;;;;;;;;7.90;99.90;;;;;;5043105;28;19917;-82
2021/12/14 02:23:05;;;;;;;;;;;7.90;99.90;;;;;;5030382;28;19917;-83
2021/12/14 02:25:31;;;;;;;;;;;7.90;99.90;;;;;;5026644;28;19913;-82
2021/12/14 02:27:59;;;;;;;;;;;7.90;99.90;;;;;;5024830;28;20189;-84
2021/12/14 02:30:27;;;;;;;;;;;7.90;99.90;;;;;;5040858;28;19995;-83
2021/12/14 02:32:53;;;;;;;;;;;7.90;99.90;;;;;;5024447;28;19959;-82
2021/12/14 02:35:20;;;;;;;;;;;7.90;99.90;;;;;;5028007;28;20339;-82
2021/12/14 02:38:12;;;;;;;;;;;7.90;99.90;;;;;;5024519;28;19917;-83
2021/12/14 02:40:57;;;;;;;;;;;7.90;99.90;;;;;;5020508;28;19925;-83
2021/12/14 02:43:37;;;;;;;;;;;7.90;99.90;;;;;;5042191;28;19913;-85
2021/12/14 02:46:12;;;;;;;;;;;7.90;99.90;;;;;;5024702;28;21400;-83
2021/12/14 02:48:42;;;;;;;;;;;7.90;99.90;;;;;;5022299;28;20007;-83
2021/12/14 02:51:16;;;;;;;;;;;7.90;99.90;;;;;;5041203;28;19917;-82
2021/12/14 02:53:43;;;;;;;;;;;7.90;99.90;;;;;;5020915;28;20374;-84
2021/12/14 02:56:19;;;;;;;;;;;7.90;99.90;;;;;;5043240;28;19917;-85
2021/12/14 02:58:45;;;;;;;;;;;7.80;99.90;;;;;;5041355;28;19992;-84
2021/12/14 03:01:11;;;;;;;;;;;7.90;99.90;;;;;;5025220;28;19913;-83
2021/12/14 03:03:37;;;;;;;;;;;7.90;99.90;;;;;;5023449;28;19924;-83
2021/12/14 03:06:05;;;;;;;;;;;7.90;99.90;;;;;;5029462;28;20041;-83
2021/12/14 03:08:33;;;;;;;;;;;7.90;99.90;;;;;;5024465;28;19968;-84
2021/12/14 03:11:10;;;;;;;;;;;7.90;99.90;;;;;;5040718;28;19913;-83
2021/12/14 03:13:40;;;;;;;;;;;7.80;99.90;;;;;;5028939;28;20297;-88
2021/12/14 03:16:08;;;;;;;;;;;7.80;99.90;;;;;;5041637;28;20367;-83
2021/12/14 03:18:36;;;;;;;;;;;7.80;99.90;;;;;;5015256;28;19957;-83
2021/12/14 03:21:13;;;;;;;;;;;7.90;99.90;;;;;;5022072;28;19952;-85
2021/12/14 03:23:41;;;;;;;;;;;7.90;99.90;;;;;;5040993;28;20208;-84
2021/12/14 03:26:08;;;;;;;;;;;7.90;99.90;;;;;;5040408;28;20259;-83
2021/12/14 03:28:34;;;;;;;;;;;7.90;99.90;;;;;;5025398;28;19917;-86
2021/12/14 03:31:19;;;;;;;;;;;7.90;99.90;;;;;;5041080;28;19952;-84
2021/12/14 03:33:50;;;;;;;;;;;7.90;99.90;;;;;;5030028;28;19917;-82
2021/12/14 03:36:17;;;;;;;;;;;7.80;99.90;;;;;;5025594;28;20198;-82
2021/12/14 03:38:50;;;;;;;;;;;7.90;99.90;;;;;;5043106;28;19921;-83
2021/12/14 03:41:24;;;;;;;;;;;7.80;99.90;;;;;;5030859;28;19957;-82
2021/12/14 03:43:52;;;;;;;;;;;7.80;99.90;;;;;;5032434;28;20258;-82
2021/12/14 03:46:18;;;;;;;;;;;7.80;99.90;;;;;;5027382;28;20317;-82
2021/12/14 03:48:44;;;;;;;;;;;7.80;99.90;;;;;;5035554;28;19988;-82
2021/12/14 03:51:09;;;;;;;;;;;7.80;99.90;;;;;;5030925;28;19917;-85
2021/12/14 03:53:35;;;;;;;;;;;7.80;99.90;;;;;;5029815;28;19943;-84
2021/12/14 03:56:03;;;;;;;;;;;7.80;99.90;;;;;;5044288;28;19921;-83
2021/12/14 03:58:35;;;;;;;;;;;7.80;99.90;;;;;;5028238;28;19914;-82
2021/12/14 04:01:07;;;;;;;;;;;7.70;99.90;;;;;;5026458;28;19966;-82
2021/12/14 04:03:33;;;;;;;;;;;7.70;99.90;;;;;;5034882;28;19928;-86
2021/12/14 04:05:58;;;;;;;;;;;7.70;99.90;;;;;;5029048;28;20300;-85
2021/12/14 04:08:25;;;;;;;;;;;7.60;99.90;;;;;;5028910;28;19921;-84
2021/12/14 04:10:53;;;;;;;;;;;7.70;99.90;;;;;;5029045;28;19913;-84
2021/12/14 04:13:26;;;;;;;;;;;7.70;99.90;;;;;;5030409;28;20304;-84
2021/12/14 04:15:53;;;;;;;;;;;7.70;99.90;;;;;;5034724;28;19992;-82
2021/12/14 04:18:19;;;;;;;;;;;7.70;99.90;;;;;;5040405;28;19921;-85
2021/12/14 04:20:46;;;;;;;;;;;7.70;99.90;;;;;;5009711;28;19918;-85
2021/12/14 04:23:17;;;;;;;;;;;7.70;99.90;;;;;;5044893;28;19922;-83
2021/12/14 04:25:43;;;;;;;;;;;7.70;99.90;;;;;;5033460;28;20240;-83
2021/12/14 04:28:10;;;;;;;;;;;7.70;99.90;;;;;;5042286;28;19925;-82
2021/12/14 04:30:36;;;;;;;;;;;7.70;99.90;;;;;;5084083;23;19991;-83
2021/12/14 04:33:05;;;;;;;;;;;7.70;99.90;;;;;;5059783;28;20395;-82
2021/12/14 04:35:32;;;;;;;;;;;7.70;99.90;;;;;;5055182;28;20330;-83
2021/12/14 04:38:00;;;;;;;;;;;7.70;99.90;;;;;;5055263;28;19968;-82
2021/12/14 04:54:03;;;;;;;;;;;7.70;99.90;;;;;;5049449;28;19944;-83
2021/12/14 04:56:33;;;;;;;;;;;7.70;99.90;;;;;;5049641;28;19908;-83
2021/12/14 04:59:01;;;;;;;;;;;7.70;99.90;;;;;;5056052;28;19917;-83
2021/12/14 05:01:27;;;;;;;;;;;7.70;99.90;;;;;;5060778;28;19923;-83
2021/12/14 05:03:58;;;;;;;;;;;7.60;99.90;;;;;;5065880;28;19917;-83
2021/12/14 05:06:31;;;;;;;;;;;7.60;99.90;;;;;;5055431;28;20193;-83
2021/12/14 05:09:22;;;;;;;;;;;7.60;99.90;;;;;;5053606;28;19920;-82
2021/12/14 05:11:50;;;;;;;;;;;7.60;99.90;;;;;;5048008;28;19963;-83
2021/12/14 05:14:15;;;;;;;;;;;7.60;99.90;;;;;;5066488;28;19916;-84
2021/12/14 05:16:41;;;;;;;;;;;7.60;99.90;;;;;;5065267;28;19935;-83
2021/12/14 05:19:08;;;;;;;;;;;7.70;99.90;;;;;;5047573;28;19917;-83
2021/12/14 05:21:39;;;;;;;;;;;7.70;99.90;;;;;;5044903;28;19935;-82
2021/12/14 05:24:06;;;;;;;;;;;7.60;99.90;;;;;;5044530;28;19913;-83
2021/12/14 05:26:32;;;;;;;;;;;7.60;99.90;;;;;;5054765;28;20570;-82
2021/12/14 05:28:58;;;;;;;;;;;7.60;99.90;;;;;;5048513;28;19932;-82
2021/12/14 05:31:23;;;;;;;;;;;7.60;99.90;;;;;;5067559;28;19917;-83
2021/12/14 05:33:49;;;;;;;;;;;7.70;99.90;;;;;;5051049;28;19999;-84
2021/12/14 05:36:16;;;;;;;;;;;7.60;99.90;;;;;;5047376;28;19920;-84
2021/12/14 05:39:17;;;;;;;;;;;7.60;99.90;;;;;;5042944;28;19920;-83
2021/12/14 05:44:15;;;;;;;;;;;7.70;99.90;;;;;;5047363;28;19927;-82
2021/12/14 05:46:49;;;;;;;;;;;7.60;99.90;;;;;;5056189;28;19913;-82
2021/12/14 05:49:20;;;;;;;;;;;7.60;99.90;;;;;;5037100;28;19947;-83
2021/12/14 05:51:47;;;;;;;;;;;7.60;99.90;;;;;;5042125;28;19966;-83
2021/12/14 05:54:17;;;;;;;;;;;7.60;99.90;;;;;;5056621;28;19917;-82
2021/12/14 05:56:43;;;;;;;;;;;7.60;99.90;;;;;;5056064;28;19936;-83
2021/12/14 05:59:08;;;;;;;;;;;7.60;99.90;;;;;;5056151;28;20312;-85
2021/12/14 06:01:34;;;;;;;;;;;7.60;99.90;;;;;;5055621;28;19913;-82
2021/12/14 06:04:01;;;;;;;;;;;7.60;99.90;;;;;;5053741;28;20244;-83
2021/12/14 06:06:29;;;;;;;;;;;7.60;99.90;;;;;;5053651;28;19917;-83
2021/12/14 06:09:13;;;;;;;;;;;7.60;99.90;;;;;;5051956;28;19950;-82
2021/12/14 06:11:40;;;;;;;;;;;7.60;99.90;;;;;;5067519;28;19923;-81
2021/12/14 06:14:12;;;;;;;;;;;7.60;99.90;;;;;;5054873;28;19913;-81
2021/12/14 06:16:38;;;;;;;;;;;7.60;99.90;;;;;;5050926;28;20020;-81
2021/12/14 06:19:15;;;;;;;;;;;7.60;99.90;;;;;;5046124;28;20004;-83
2021/12/14 06:21:41;;;;;;;;;;;7.60;99.90;;;;;;5051969;28;20300;-81
2021/12/14 06:24:07;;;;;;;;;;;7.60;99.90;;;;;;5053577;28;19912;-82
2021/12/14 06:26:34;;;;;;;;;;;7.60;99.90;;;;;;5054569;28;19940;-82
2021/12/14 06:29:04;;;;;;;;;;;7.60;99.90;;;;;;5053514;28;19921;-81
2021/12/14 06:31:30;;;;;;;;;;;7.60;99.90;;;;;;5052449;28;20385;-82
2021/12/14 06:33:55;;;;;;;;;;;7.60;99.90;;;;;;5053222;28;19919;-82
2021/12/14 06:36:44;;;;;;;;;;;7.60;99.90;;;;;;5054526;28;19913;-82
2021/12/14 06:39:09;;;;;;;;;;;7.60;99.90;;;;;;5052614;28;19986;-82
2021/12/14 06:41:35;;;;;;;;;;;7.60;99.90;;;;;;5052707;28;20292;-82
2021/12/14 06:44:00;;;;;;;;;;;7.60;99.90;;;;;;5053312;28;19913;-83
2021/12/14 06:46:28;;;;;;;;;;;7.60;99.90;;;;;;5052715;28;19916;-82
2021/12/14 06:49:04;;;;;;;;;;;7.60;99.90;;;;;;5046305;28;19917;-81
2021/12/14 06:51:33;;;;;;;;;;;7.60;99.90;;;;;;5052925;28;20037;-83
2021/12/14 06:54:00;;;;;;;;;;;7.60;99.90;;;;;;5053469;28;20334;-81
2021/12/14 06:56:27;;;;;;;;;;;7.60;99.90;;;;;;5051051;28;20220;-81
2021/12/14 06:58:55;;;;;;;;;;;7.60;99.90;;;;;;5047882;28;19950;-82
2021/12/14 07:01:23;;;;;;;;;;;7.60;99.90;;;;;;5063801;28;19959;-83
2021/12/14 07:04:08;;;;;;;;;;;7.60;99.90;;;;;;5053272;28;19928;-81
2021/12/14 07:06:36;;;;;;;;;;;7.60;99.90;;;;;;5060920;28;19948;-83
2021/12/14 07:09:11;;;;;;;;;;;7.60;99.90;;;;;;5048761;28;19917;-81
2021/12/14 07:11:39;;;;;;;;;;;7.60;99.90;;;;;;5046129;28;20290;-82
2021/12/14 07:14:10;;;;;;;;;;;7.60;99.90;;;;;;5066292;28;19912;-81
2021/12/14 07:16:39;;;;;;;;;;;7.60;99.90;;;;;;5049582;28;19920;-82
2021/12/14 07:19:05;;;;;;;;;;;7.60;99.90;;;;;;5049819;28;19913;-83
2021/12/14 07:21:39;;;;;;;;;;;7.60;99.90;;;;;;5047795;28;20350;-81
2021/12/14 07:24:23;;;;;;;;;;;7.60;99.90;;;;;;5051795;28;19986;-83
2021/12/14 07:26:49;;;;;;;;;;;7.60;99.90;;;;;;5050924;28;19916;-82
2021/12/14 07:29:22;;;;;;;;;;;7.60;99.90;;;;;;5047128;28;19928;-80
2021/12/14 07:31:47;;;;;;;;;;;7.60;99.90;;;;;;5059124;28;20323;-83
2021/12/14 07:34:13;;;;;;;;;;;7.60;99.90;;;;;;5049714;28;19962;-81
2021/12/14 07:36:39;;;;;;;;;;;7.60;99.90;;;;;;5051257;28;19916;-82
2021/12/14 07:39:04;;;;;;;;;;;7.60;99.90;;;;;;5052195;28;20299;-81
2021/12/14 07:41:32;;;;;;;;;;;7.60;99.90;;;;;;5048891;28;19913;-82
2021/12/14 07:43:57;;;;;;;;;;;7.60;99.90;;;;;;5050659;28;19917;-81
2021/12/14 07:46:25;;;;;;;;;;;7.60;99.90;;;;;;5049345;28;19913;-82
2021/12/14 07:48:54;;;;;;;;;;;7.60;99.90;;;;;;5046890;28;20243;-82
2021/12/14 07:51:22;;;;;;;;;;;7.60;99.90;;;;;;5048789;28;20267;-83
2021/12/14 07:54:08;;;;;;;;;;;7.60;99.90;;;;;;5043260;28;19913;-82
2021/12/14 07:56:36;;;;;;;;;;;7.70;99.90;;;;;;5039651;28;19909;-82
2021/12/14 07:59:07;;;;;;;;;;;7.70;99.90;;;;;;5047183;28;20015;-82
2021/12/14 08:01:33;;;;;;;;;;;7.60;99.90;;;;;;5045512;28;19921;-82
2021/12/14 08:04:07;;;;;;;;;;;7.70;99.90;;;;;;5045845;28;19920;-82
2021/12/14 08:06:45;;;;;;;;;;;7.70;99.90;;;;;;5041830;28;19924;-82
2021/12/14 08:09:19;;;;;;;;;;;7.70;99.90;;;;;;5048030;28;20419;-81
2021/12/14 08:11:49;;;;;;;;;;;7.70;99.90;;;;;;5048018;28;19913;-81
2021/12/14 08:14:20;;;;;;;;;;;7.70;99.90;;;;;;5041528;28;19920;-83
2021/12/14 08:16:54;;;;;;;;;;;7.70;99.90;;;;;;5042991;28;20215;-82
2021/12/14 08:19:26;;;;;;;;;;;7.70;99.90;;;;;;5051965;28;20038;-83
2021/12/14 08:21:52;;;;;;;;;;;7.70;99.90;;;;;;5052439;28;20457;-82
2021/12/14 08:24:18;;;;;;;;;;;7.70;99.90;;;;;;5055123;28;19917;-81
2021/12/14 08:26:46;;;;;;;;;;;7.70;99.90;;;;;;5056458;28;20258;-82
2021/12/14 08:29:13;;;;;;;;;;;7.70;99.90;;;;;;5055022;28;19956;-83
2021/12/14 08:32:02;;;;;;;;;;;7.70;99.90;;;;;;5055511;28;19920;-84
2021/12/14 08:34:29;;;;;;;;;;;7.70;99.90;;;;;;5051532;28;19923;-85
2021/12/14 08:37:04;;;;;;;;;;;7.80;99.90;;;;;;5052121;28;20008;-83
2021/12/14 08:39:31;;;;;;;;;;;7.70;99.90;;;;;;5051521;28;19943;-84
2021/12/14 08:42:07;;;;;;;;;;;7.70;99.90;;;;;;5054533;28;19916;-85
2021/12/14 08:44:36;;;;;;;;;;;7.70;99.90;;;;;;5054614;28;19927;-84
2021/12/14 08:47:04;;;;;;;;;;;7.70;99.90;;;;;;5052213;28;20683;-84
2021/12/14 08:49:29;;;;;;;;;;;7.70;99.90;;;;;;5057086;28;19916;-84
2021/12/14 08:51:55;;;;;;;;;;;7.70;99.90;;;;;;5055975;28;20308;-85
2021/12/14 08:54:26;;;;;;;;;;;7.70;99.90;;;;;;5056590;28;19920;-85
2021/12/14 08:56:57;;;;;;;;;;;7.80;99.90;;;;;;5057038;28;19913;-85
2021/12/14 08:59:23;;;;;;;;;;;7.80;99.90;;;;;;5068510;28;19913;-84
2021/12/14 09:01:50;;;;;;;;;;;7.80;99.90;;;;;;5058334;28;20366;-84
2021/12/14 09:04:22;;;;;;;;;;;7.80;99.90;;;;;;5057872;28;19915;-84
2021/12/14 09:06:49;;;;;;;;;;;7.80;99.90;;;;;;5055019;28;20319;-83
2021/12/14 09:09:17;;;;;;;;;;;7.80;99.90;;;;;;5053553;28;19923;-84
2021/12/14 09:11:44;;;;;;;;;;;7.80;99.90;;;;;;5041029;28;20058;-85
2021/12/14 09:14:13;;;;;;;;;;;7.80;99.90;;;;;;5054969;28;20290;-85
2021/12/14 09:16:40;;;;;;;;;;;7.80;99.90;;;;;;5055492;28;19924;-85
2021/12/14 09:19:15;;;;;;;;;;;7.80;99.90;;;;;;5055300;28;19956;-85
2021/12/14 09:21:42;;;;;;;;;;;7.80;99.90;;;;;;5046599;28;19994;-86
2021/12/14 09:24:11;;;;;;;;;;;7.80;99.90;;;;;;5056176;28;19920;-84
2021/12/14 09:26:37;;;;;;;;;;;7.90;99.90;;;;;;5055252;28;19919;-84
2021/12/14 09:29:04;;;;;;;;;;;7.80;99.90;;;;;;5053781;28;19944;-84
2021/12/14 09:31:32;;;;;;;;;;;7.90;99.90;;;;;;5053350;28;19920;-85
2021/12/14 09:33:59;;;;;;;;;;;7.90;99.90;;;;;;5053455;28;19966;-83
2021/12/14 09:36:26;;;;;;;;;;;7.90;99.90;;;;;;5054016;28;19923;-84
2021/12/14 09:38:55;;;;;;;;;;;7.90;99.90;;;;;;5053463;28;19955;-83
2021/12/14 09:41:22;;;;;;;;;;;7.90;99.90;;;;;;5054522;28;19919;-83
2021/12/14 09:43:48;;;;;;;;;;;8.00;99.90;;;;;;5055751;28;19924;-84
2021/12/14 09:46:15;;;;;;;;;;;8.00;99.90;;;;;;5054469;28;20288;-84
2021/12/14 09:48:42;;;;;;;;;;;8.00;99.90;;;;;;5068948;28;19943;-84
2021/12/14 09:51:13;;;;;;;;;;;8.10;99.90;;;;;;5051796;28;23212;-85
2021/12/14 09:53:43;;;;;;;;;;;8.10;99.90;;;;;;5053130;28;20552;-84
2021/12/14 09:56:10;;;;;;;;;;;8.10;99.90;;;;;;5055386;28;19913;-84
2021/12/14 09:58:39;;;;;;;;;;;8.10;99.90;;;;;;5052983;28;19924;-86
2021/12/14 10:01:10;;;;;;;;;;;8.10;99.90;;;;;;5053206;28;20262;-84
2021/12/14 10:03:38;;;;;;;;;;;8.10;99.90;;;;;;5071184;28;19912;-84
2021/12/14 10:06:05;;;;;;;;;;;8.10;99.90;;;;;;5055113;28;19917;-85
2021/12/14 10:08:37;;;;;;;;;;;8.10;99.90;;;;;;5052577;28;20209;-83
2021/12/14 10:11:24;;;;;;;;;;;8.10;99.90;;;;;;5050524;28;19956;-82
2021/12/14 10:13:52;;;;;;;;;;;8.20;99.90;;;;;;5052667;28;19924;-82
2021/12/14 10:16:17;;;;;;;;;;;8.20;99.90;;;;;;5055130;28;19913;-83
2021/12/14 10:18:45;;;;;;;;;;;8.20;99.90;;;;;;5054122;28;20362;-84
2021/12/14 10:21:39;;;;;;;;;;;8.20;99.90;;;;;;5045799;28;20339;-85
2021/12/14 10:24:06;;;;;;;;;;;8.20;99.90;;;;;;4994922;28;19933;-85
2021/12/14 10:26:34;;;;;;;;;;;8.30;99.90;;;;;;4982234;28;19918;-84
2021/12/14 10:29:05;;;;;;;;;;;8.30;99.90;;;;;;4981954;28;19984;-83
2021/12/14 10:31:36;;;;;;;;;;;8.30;99.90;;;;;;5003628;28;20012;-83
2021/12/14 10:34:04;;;;;;;;;;;8.40;99.90;;;;;;5004950;28;19917;-84
2021/12/14 10:36:35;;;;;;;;;;;8.40;99.90;;;;;;4995453;28;19914;-84
2021/12/14 10:44:40;;;;;;;;;;;8.40;99.90;;;;;;4999254;28;19941;-84
2021/12/14 10:47:07;;;;;;;;;;;8.50;99.90;;;;;;4977009;28;20009;-83
2021/12/14 10:49:33;;;;;;;;;;;8.50;99.90;;;;;;4992799;28;19926;-83
2021/12/14 10:52:00;;;;;;;;;;;8.50;99.90;;;;;;4982609;28;19920;-82
2021/12/14 10:54:27;;;;;;;;;;;8.50;99.90;;;;;;4993937;28;19936;-84
2021/12/14 10:56:56;;;;;;;;;;;8.50;99.90;;;;;;4976363;28;19918;-83
2021/12/14 10:59:24;;;;;;;;;;;8.50;99.90;;;;;;4995871;28;20202;-82
2021/12/14 11:01:50;;;;;;;;;;;8.60;99.90;;;;;;5055607;28;19916;-83
2021/12/14 11:04:25;;;;;;;;;;;8.60;99.90;;;;;;5048412;28;19924;-83
2021/12/14 11:06:52;;;;;;;;;;;8.60;99.90;;;;;;5055155;28;19959;-84
2021/12/14 11:09:47;;;;;;;;;;;8.60;99.90;;;;;;5064956;28;20011;-84
2021/12/14 11:12:25;;;;;;;;;;;8.60;99.90;;;;;;5041549;28;20291;-86
2021/12/14 11:14:52;;;;;;;;;;;8.60;99.90;;;;;;5053641;28;19929;-85
2021/12/14 11:20:17;;;;;;;;;;;8.60;99.90;;;;;;5046063;28;19928;-84
2021/12/14 11:23:03;;;;;;;;;;;8.60;99.90;;;;;;5046107;28;19931;-84
2021/12/14 11:25:30;;;;;;;;;;;8.70;99.90;;;;;;5048921;28;19921;-85
2021/12/14 11:28:02;;;;;;;;;;;8.70;99.90;;;;;;5047835;28;20240;-81
2021/12/14 11:30:27;;;;;;;;;;;8.70;99.90;;;;;;5044607;28;19927;-85
2021/12/14 11:33:10;;;;;;;;;;;8.70;99.90;;;;;;5047279;28;19912;-84
2021/12/14 11:35:56;;;;;;;;;;;8.70;99.90;;;;;;5047168;28;19932;-83
2021/12/14 11:38:23;;;;;;;;;;;8.70;99.90;;;;;;5047225;28;19913;-83
2021/12/14 11:40:48;;;;;;;;;;;8.80;99.90;;;;;;5046698;28;20043;-83
2021/12/14 11:43:17;;;;;;;;;;;8.70;99.90;;;;;;5046255;28;20039;-82
2021/12/14 11:45:46;;;;;;;;;;;8.70;99.90;;;;;;5047237;28;19969;-81
2021/12/14 11:48:11;;;;;;;;;;;8.70;99.90;;;;;;5047139;28;20235;-83
2021/12/14 11:50:39;;;;;;;;;;;8.80;99.90;;;;;;5046627;28;19917;-83
2021/12/14 11:53:05;;;;;;;;;;;8.80;99.90;;;;;;5046574;28;19964;-82
2021/12/14 11:55:34;;;;;;;;;;;8.80;99.90;;;;;;5063570;28;20101;-83
2021/12/14 11:58:02;;;;;;;;;;;8.80;99.90;;;;;;5047869;28;19917;-83
2021/12/14 12:00:28;;;;;;;;;;;8.80;99.90;;;;;;5048309;28;20366;-84
2021/12/14 12:02:53;;;;;;;;;;;8.80;99.90;;;;;;5050781;28;19917;-84
2021/12/14 12:05:21;;;;;;;;;;;8.80;99.90;;;;;;5050912;28;19928;-84
2021/12/14 12:10:44;;;;;;;;;;;8.80;99.90;;;;;;5050954;28;19955;-84
2021/12/14 12:13:09;;;;;;;;;;;8.80;99.90;;;;;;5052100;28;19917;-84
2021/12/14 12:15:44;;;;;;;;;;;8.90;99.90;;;;;;5053759;28;20003;-83
2021/12/14 12:18:10;;;;;;;;;;;8.90;99.90;;;;;;5053738;28;19948;-83
2021/12/14 12:20:35;;;;;;;;;;;8.90;99.90;;;;;;5052486;28;19967;-84
2021/12/14 12:23:03;;;;;;;;;;;9.00;99.90;;;;;;5048467;28;19917;-83
2021/12/14 12:25:41;;;;;;;;;;;8.90;99.90;;;;;;5038813;28;19920;-84
2021/12/14 12:28:08;;;;;;;;;;;8.90;99.90;;;;;;5049885;28;19947;-85
2021/12/14 12:30:52;;;;;;;;;;;8.90;99.90;;;;;;5049320;28;19975;-82
2021/12/14 12:33:23;;;;;;;;;;;9.00;99.90;;;;;;5066845;28;20436;-86
2021/12/14 12:35:51;;;;;;;;;;;9.00;99.90;;;;;;5050610;28;20530;-83
2021/12/14 12:38:17;;;;;;;;;;;9.00;99.90;;;;;;5049578;28;20016;-83
2021/12/14 12:40:48;;;;;;;;;;;9.00;99.90;;;;;;5048747;28;20031;-83
2021/12/14 12:43:20;;;;;;;;;;;9.00;99.90;;;;;;5050099;28;19921;-85
2021/12/14 12:45:58;;;;;;;;;;;9.00;99.90;;;;;;5050842;28;20357;-83
2021/12/14 12:48:40;;;;;;;;;;;9.00;99.90;;;;;;5049464;28;19949;-83
2021/12/14 12:51:06;;;;;;;;;;;9.10;99.90;;;;;;5048607;28;19916;-84
2021/12/14 12:53:32;;;;;;;;;;;9.10;99.90;;;;;;5048683;28;20251;-83
2021/12/14 12:56:05;;;;;;;;;;;9.10;99.90;;;;;;5048733;28;19964;-83
2021/12/14 12:58:31;;;;;;;;;;;9.10;99.90;;;;;;5049482;28;19925;-83
2021/12/14 13:00:59;;;;;;;;;;;9.10;99.90;;;;;;5047714;28;19917;-88
2021/12/14 13:03:30;;;;;;;;;;;9.10;99.90;;;;;;5048790;28;19999;-83
2021/12/14 13:05:59;;;;;;;;;;;9.10;99.90;;;;;;5063406;28;19913;-83
2021/12/14 13:08:24;;;;;;;;;;;9.10;99.90;;;;;;5049405;28;19920;-87
2021/12/14 13:10:50;;;;;;;;;;;9.10;99.90;;;;;;5049735;28;19917;-83
2021/12/14 13:13:25;;;;;;;;;;;9.10;99.90;;;;;;5052394;28;19919;-86
2021/12/14 13:15:58;;;;;;;;;;;9.10;99.90;;;;;;5047797;28;19947;-86
2021/12/14 13:18:29;;;;;;;;;;;9.10;99.90;;;;;;5049083;28;19927;-86
2021/12/14 13:21:15;;;;;;;;;;;9.10;99.90;;;;;;5046967;28;19920;-86
2021/12/14 13:23:52;;;;;;;;;;;9.10;99.90;;;;;;5031077;28;19928;-86
2021/12/14 13:26:29;;;;;;;;;;;9.10;99.90;;;;;;5049418;28;19917;-86
2021/12/14 13:28:58;;;;;;;;;;;9.30;99.90;;;;;;5046965;28;20011;-89
2021/12/14 13:31:30;;;;;;;;;;;9.20;99.90;;;;;;5045097;28;19963;-83
2021/12/14 13:33:57;;;;;;;;;;;9.20;99.90;;;;;;5049931;28;19919;-90
2021/12/14 13:36:22;;;;;;;;;;;9.30;99.90;;;;;;5046947;28;19917;-86
2021/12/14 13:38:50;;;;;;;;;;;9.30;99.90;;;;;;5045535;28;19927;-85
2021/12/14 13:41:34;;;;;;;;;;;9.30;99.90;;;;;;5047791;28;19924;-86
2021/12/14 13:44:00;;;;;;;;;;;9.30;99.90;;;;;;5067247;28;20011;-83
2021/12/14 13:46:26;;;;;;;;;;;9.30;99.90;;;;;;5050104;28;20007;-87
2021/12/14 13:48:51;;;;;;;;;;;9.30;99.90;;;;;;5048953;28;20010;-90
2021/12/14 13:51:18;;;;;;;;;;;9.30;99.90;;;;;;5047853;28;20533;-84
2021/12/14 13:53:45;;;;;;;;;;;9.30;99.90;;;;;;5038243;28;19921;-81
2021/12/14 13:56:12;;;;;;;;;;;9.30;99.90;;;;;;5045673;28;20575;-80
2021/12/14 13:58:38;;;;;;;;;;;9.30;99.90;;;;;;5044268;28;19917;-80
2021/12/14 14:01:04;;;;;;;;;;;9.30;99.90;;;;;;5048414;28;20354;-80
2021/12/14 14:03:31;;;;;;;;;;;9.30;99.90;;;;;;5045865;28;19947;-80
2021/12/14 14:05:58;;;;;;;;;;;9.20;99.90;;;;;;5045699;28;20625;-79
2021/12/14 14:08:29;;;;;;;;;;;9.20;99.90;;;;;;5046301;28;19925;-79
2021/12/14 14:10:54;;;;;;;;;;;9.20;99.90;;;;;;5047255;28;19925;-79
2021/12/14 14:13:25;;;;;;;;;;;9.30;99.90;;;;;;5046436;28;19921;-79
2021/12/14 14:15:52;;;;;;;;;;;9.20;99.90;;;;;;5049219;28;20051;-78
2021/12/14 14:18:24;;;;;;;;;;;9.20;99.90;;;;;;5045450;28;19968;-79
2021/12/14 14:20:51;;;;;;;;;;;9.30;99.90;;;;;;5047664;28;20205;-79
2021/12/14 14:23:22;;;;;;;;;;;9.20;99.90;;;;;;5045810;28;19917;-80
2021/12/14 14:25:54;;;;;;;;;;;9.30;99.90;;;;;;5044188;28;19920;-78
2021/12/14 14:28:30;;;;;;;;;;;9.30;99.90;;;;;;5041110;28;20216;-79
2021/12/14 14:30:57;;;;;;;;;;;9.30;99.90;;;;;;5052757;28;20055;-78
2021/12/14 14:33:39;;;;;;;;;;;9.20;99.90;;;;;;5043981;28;19921;-79
2021/12/14 14:36:10;;;;;;;;;;;9.30;99.90;;;;;;5043017;28;19917;-79
2021/12/14 14:38:40;;;;;;;;;;;9.30;99.90;;;;;;5047508;28;20016;-79
2021/12/14 14:41:09;;;;;;;;;;;9.30;99.90;;;;;;5043377;28;20231;-79
2021/12/14 14:43:50;;;;;;;;;;;9.20;99.90;;;;;;5041023;28;19916;-79
2021/12/14 14:46:32;;;;;;;;;;;9.30;99.90;;;;;;5046828;28;20004;-81
2021/12/14 14:48:58;;;;;;;;;;;9.30;99.90;;;;;;5045002;28;19921;-83
2021/12/14 14:51:44;;;;;;;;;;;9.30;99.90;;;;;;5046859;28;19916;-80
2021/12/14 14:54:41;;;;;;;;;;;9.30;99.90;;;;;;5046076;28;20453;-79
2021/12/14 14:57:06;;;;;;;;;;;9.30;99.90;;;;;;5042487;28;19999;-79
2021/12/14 14:59:33;;;;;;;;;;;9.20;99.90;;;;;;5034993;28;20011;-79
2021/12/14 15:01:59;;;;;;;;;;;9.20;99.90;;;;;;5053999;28;19919;-79
2021/12/14 15:04:25;;;;;;;;;;;9.30;99.90;;;;;;5054022;28;19909;-80
2021/12/14 15:06:51;;;;;;;;;;;9.30;99.90;;;;;;5055163;28;19909;-79
2021/12/14 15:09:28;;;;;;;;;;;9.30;99.90;;;;;;5055196;28;19916;-80
2021/12/14 15:11:57;;;;;;;;;;;9.30;99.90;;;;;;5053578;28;19973;-80
2021/12/14 15:14:43;;;;;;;;;;;9.30;99.90;;;;;;5053589;28;19917;-79
2021/12/14 15:17:11;;;;;;;;;;;9.30;99.90;;;;;;5054568;28;20011;-79
2021/12/14 15:19:38;;;;;;;;;;;9.30;99.90;;;;;;5053951;28;19916;-80